<?xml version="1.0" encoding="UTF-8" standalone="no" ?>
<gpx xmlns="http://www.topografix.com/GPX/1/1" creator="MapSource 6.15.5" version="1.1" xmlns:xsi="http://www.w3.org/2001/XMLSchema-instance" xsi:schemaLocation="http://www.topografix.com/GPX/1/1 http://www.topografix.com/GPX/1/1/gpx.xsd">

  <metadata>
    <link href="http://www.garmin.com">
      <text>Garmin International</text>
    </link>
    <time>2014-01-18T18:27:32Z</time>
    <bounds maxlat="51.8953248" maxlon="7.1946455" minlat="51.8237543" minlon="7.1048080"/>
  </metadata>

  <wpt lat="51.8500668" lon="7.1190524">
    <ele>58.0447998</ele>
    <name>Bildstock</name>
    <cmt>Nadelwald</cmt>
    <desc>Nadelwald</desc>
    <sym>Custom 0</sym>
    <extensions>
      <gpxx:WaypointExtension xmlns:gpxx="http://www.garmin.com/xmlschemas/GpxExtensions/v3">
        <gpxx:DisplayMode>SymbolAndName</gpxx:DisplayMode>
      </gpxx:WaypointExtension>
    </extensions>
  </wpt>

  <wpt lat="51.8326375" lon="7.1131777">
    <ele>58.0447998</ele>
    <name>Schutzhütte</name>
    <cmt>Naturschutzgebiet (Heubachwies</cmt>
    <desc>Naturschutzgebiet (Heubachwies</desc>
    <sym>Custom 0</sym>
    <extensions>
      <gpxx:WaypointExtension xmlns:gpxx="http://www.garmin.com/xmlschemas/GpxExtensions/v3">
        <gpxx:DisplayMode>SymbolAndName</gpxx:DisplayMode>
      </gpxx:WaypointExtension>
    </extensions>
  </wpt>

  <wpt lat="51.8294898" lon="7.1411706">
    <ele>52.9979248</ele>
    <name>Schwiene Tüns</name>
    <cmt>Np Hohe Mark Rte</cmt>
    <desc>Np Hohe Mark Rte</desc>
    <sym>Custom 0</sym>
    <extensions>
      <gpxx:WaypointExtension xmlns:gpxx="http://www.garmin.com/xmlschemas/GpxExtensions/v3">
        <gpxx:DisplayMode>SymbolAndName</gpxx:DisplayMode>
      </gpxx:WaypointExtension>
    </extensions>
  </wpt>

  <trk>
    <name>ACTIVE LOG 005</name>
    <extensions>
      <gpxx:TrackExtension xmlns:gpxx="http://www.garmin.com/xmlschemas/GpxExtensions/v3">
        <gpxx:DisplayColor>Blue</gpxx:DisplayColor>
      </gpxx:TrackExtension>
    </extensions>
    <trkseg>
      <trkpt lat="51.8925846" lon="7.1874171">
        <ele>159.7161865</ele>
        <time>2014-01-18T08:58:06Z</time>
      </trkpt>
      <trkpt lat="51.8925702" lon="7.1874554">
        <ele>155.8709717</ele>
        <time>2014-01-18T08:58:19Z</time>
      </trkpt>
      <trkpt lat="51.8925679" lon="7.1874532">
        <ele>151.5449219</ele>
        <time>2014-01-18T08:58:21Z</time>
      </trkpt>
      <trkpt lat="51.8925664" lon="7.1874534">
        <ele>148.6610107</ele>
        <time>2014-01-18T08:58:22Z</time>
      </trkpt>
      <trkpt lat="51.8925593" lon="7.1874670">
        <ele>143.3736572</ele>
        <time>2014-01-18T08:58:24Z</time>
      </trkpt>
      <trkpt lat="51.8925216" lon="7.1875079">
        <ele>137.1252441</ele>
        <time>2014-01-18T08:58:27Z</time>
      </trkpt>
      <trkpt lat="51.8924752" lon="7.1875731">
        <ele>133.2799072</ele>
        <time>2014-01-18T08:58:29Z</time>
      </trkpt>
      <trkpt lat="51.8924231" lon="7.1876287">
        <ele>128.9541016</ele>
        <time>2014-01-18T08:58:31Z</time>
      </trkpt>
      <trkpt lat="51.8923856" lon="7.1876271">
        <ele>125.1087646</ele>
        <time>2014-01-18T08:58:33Z</time>
      </trkpt>
      <trkpt lat="51.8923531" lon="7.1876385">
        <ele>123.1861572</ele>
        <time>2014-01-18T08:58:35Z</time>
      </trkpt>
      <trkpt lat="51.8923411" lon="7.1876361">
        <ele>119.8214111</ele>
        <time>2014-01-18T08:58:36Z</time>
      </trkpt>
      <trkpt lat="51.8923252" lon="7.1876372">
        <ele>118.8601074</ele>
        <time>2014-01-18T08:58:37Z</time>
      </trkpt>
      <trkpt lat="51.8922637" lon="7.1877122">
        <ele>113.0922852</ele>
        <time>2014-01-18T08:58:41Z</time>
      </trkpt>
      <trkpt lat="51.8922409" lon="7.1877402">
        <ele>111.6502686</ele>
        <time>2014-01-18T08:58:42Z</time>
      </trkpt>
      <trkpt lat="51.8921754" lon="7.1878263">
        <ele>105.8824463</ele>
        <time>2014-01-18T08:58:46Z</time>
      </trkpt>
      <trkpt lat="51.8920969" lon="7.1879243">
        <ele>102.9982910</ele>
        <time>2014-01-18T08:58:49Z</time>
      </trkpt>
      <trkpt lat="51.8920692" lon="7.1879574">
        <ele>102.5177002</ele>
        <time>2014-01-18T08:58:50Z</time>
      </trkpt>
      <trkpt lat="51.8919833" lon="7.1880607">
        <ele>99.6337891</ele>
        <time>2014-01-18T08:58:53Z</time>
      </trkpt>
      <trkpt lat="51.8918710" lon="7.1882082">
        <ele>96.2692871</ele>
        <time>2014-01-18T08:58:57Z</time>
      </trkpt>
      <trkpt lat="51.8918124" lon="7.1882761">
        <ele>95.3077393</ele>
        <time>2014-01-18T08:58:59Z</time>
      </trkpt>
      <trkpt lat="51.8917604" lon="7.1883483">
        <ele>93.8658447</ele>
        <time>2014-01-18T08:59:01Z</time>
      </trkpt>
      <trkpt lat="51.8916699" lon="7.1884977">
        <ele>90.9819336</ele>
        <time>2014-01-18T08:59:05Z</time>
      </trkpt>
      <trkpt lat="51.8915709" lon="7.1886794">
        <ele>88.0980225</ele>
        <time>2014-01-18T08:59:09Z</time>
      </trkpt>
      <trkpt lat="51.8913674" lon="7.1888492">
        <ele>84.7333984</ele>
        <time>2014-01-18T08:59:15Z</time>
      </trkpt>
      <trkpt lat="51.8913028" lon="7.1889082">
        <ele>84.2526855</ele>
        <time>2014-01-18T08:59:17Z</time>
      </trkpt>
      <trkpt lat="51.8911194" lon="7.1891283">
        <ele>80.8881836</ele>
        <time>2014-01-18T08:59:23Z</time>
      </trkpt>
      <trkpt lat="51.8910907" lon="7.1891664">
        <ele>80.4074707</ele>
        <time>2014-01-18T08:59:24Z</time>
      </trkpt>
      <trkpt lat="51.8908248" lon="7.1894724">
        <ele>77.5234375</ele>
        <time>2014-01-18T08:59:33Z</time>
      </trkpt>
      <trkpt lat="51.8904472" lon="7.1900851">
        <ele>74.6395264</ele>
        <time>2014-01-18T08:59:48Z</time>
      </trkpt>
      <trkpt lat="51.8902119" lon="7.1908202">
        <ele>72.7169189</ele>
        <time>2014-01-18T09:00:03Z</time>
      </trkpt>
      <trkpt lat="51.8897575" lon="7.1912928">
        <ele>70.7941895</ele>
        <time>2014-01-18T09:00:17Z</time>
      </trkpt>
      <trkpt lat="51.8895864" lon="7.1914530">
        <ele>71.2749023</ele>
        <time>2014-01-18T09:00:23Z</time>
      </trkpt>
      <trkpt lat="51.8895864" lon="7.1914530">
        <ele>70.7941895</ele>
        <time>2014-01-18T09:00:30Z</time>
      </trkpt>
      <trkpt lat="51.8893290" lon="7.1904230">
        <ele>68.8715820</ele>
        <time>2014-01-18T09:00:37Z</time>
      </trkpt>
      <trkpt lat="51.8883151" lon="7.1917808">
        <ele>69.3522949</ele>
        <time>2014-01-18T09:00:59Z</time>
      </trkpt>
      <trkpt lat="51.8872426" lon="7.1928175">
        <ele>67.9102783</ele>
        <time>2014-01-18T09:01:29Z</time>
      </trkpt>
      <trkpt lat="51.8867792" lon="7.1932537">
        <ele>67.9102783</ele>
        <time>2014-01-18T09:01:42Z</time>
      </trkpt>
      <trkpt lat="51.8862048" lon="7.1938515">
        <ele>67.9102783</ele>
        <time>2014-01-18T09:02:00Z</time>
      </trkpt>
      <trkpt lat="51.8854532" lon="7.1945651">
        <ele>67.9102783</ele>
        <time>2014-01-18T09:02:22Z</time>
      </trkpt>
      <trkpt lat="51.8850072" lon="7.1946455">
        <ele>68.3908691</ele>
        <time>2014-01-18T09:02:35Z</time>
      </trkpt>
      <trkpt lat="51.8843345" lon="7.1937886">
        <ele>65.5070801</ele>
        <time>2014-01-18T09:02:53Z</time>
      </trkpt>
      <trkpt lat="51.8836678" lon="7.1929402">
        <ele>64.5456543</ele>
        <time>2014-01-18T09:03:11Z</time>
      </trkpt>
      <trkpt lat="51.8831017" lon="7.1922197">
        <ele>65.0263672</ele>
        <time>2014-01-18T09:03:27Z</time>
      </trkpt>
      <trkpt lat="51.8823904" lon="7.1913112">
        <ele>65.5070801</ele>
        <time>2014-01-18T09:03:48Z</time>
      </trkpt>
      <trkpt lat="51.8816656" lon="7.1903792">
        <ele>65.0263672</ele>
        <time>2014-01-18T09:04:09Z</time>
      </trkpt>
      <trkpt lat="51.8808264" lon="7.1893003">
        <ele>64.0650635</ele>
        <time>2014-01-18T09:04:31Z</time>
      </trkpt>
      <trkpt lat="51.8799484" lon="7.1881715">
        <ele>63.1036377</ele>
        <time>2014-01-18T09:04:56Z</time>
      </trkpt>
      <trkpt lat="51.8792088" lon="7.1872206">
        <ele>61.6617432</ele>
        <time>2014-01-18T09:05:17Z</time>
      </trkpt>
      <trkpt lat="51.8784530" lon="7.1862488">
        <ele>60.7003174</ele>
        <time>2014-01-18T09:05:38Z</time>
      </trkpt>
      <trkpt lat="51.8776110" lon="7.1851607">
        <ele>60.7003174</ele>
        <time>2014-01-18T09:06:01Z</time>
      </trkpt>
      <trkpt lat="51.8768371" lon="7.1841574">
        <ele>60.2197266</ele>
        <time>2014-01-18T09:06:22Z</time>
      </trkpt>
      <trkpt lat="51.8759701" lon="7.1830337">
        <ele>60.2197266</ele>
        <time>2014-01-18T09:06:47Z</time>
      </trkpt>
      <trkpt lat="51.8752442" lon="7.1820927">
        <ele>60.7003174</ele>
        <time>2014-01-18T09:07:08Z</time>
      </trkpt>
      <trkpt lat="51.8748889" lon="7.1816322">
        <ele>59.7391357</ele>
        <time>2014-01-18T09:07:18Z</time>
      </trkpt>
      <trkpt lat="51.8743309" lon="7.1809087">
        <ele>59.7391357</ele>
        <time>2014-01-18T09:07:34Z</time>
      </trkpt>
      <trkpt lat="51.8738560" lon="7.1802931">
        <ele>59.2584229</ele>
        <time>2014-01-18T09:07:49Z</time>
      </trkpt>
      <trkpt lat="51.8733209" lon="7.1794112">
        <ele>58.7777100</ele>
        <time>2014-01-18T09:08:06Z</time>
      </trkpt>
      <trkpt lat="51.8727169" lon="7.1779684">
        <ele>57.8165283</ele>
        <time>2014-01-18T09:08:29Z</time>
      </trkpt>
      <trkpt lat="51.8720989" lon="7.1764919">
        <ele>57.8165283</ele>
        <time>2014-01-18T09:08:52Z</time>
      </trkpt>
      <trkpt lat="51.8714070" lon="7.1748393">
        <ele>57.3358154</ele>
        <time>2014-01-18T09:09:19Z</time>
      </trkpt>
      <trkpt lat="51.8708114" lon="7.1733826">
        <ele>57.3358154</ele>
        <time>2014-01-18T09:09:43Z</time>
      </trkpt>
      <trkpt lat="51.8702610" lon="7.1720169">
        <ele>56.3745117</ele>
        <time>2014-01-18T09:10:05Z</time>
      </trkpt>
      <trkpt lat="51.8700708" lon="7.1715448">
        <ele>56.3745117</ele>
        <time>2014-01-18T09:10:13Z</time>
      </trkpt>
      <trkpt lat="51.8699983" lon="7.1711974">
        <ele>55.8937988</ele>
        <time>2014-01-18T09:10:18Z</time>
      </trkpt>
      <trkpt lat="51.8698581" lon="7.1695938">
        <ele>56.3745117</ele>
        <time>2014-01-18T09:10:40Z</time>
      </trkpt>
      <trkpt lat="51.8696787" lon="7.1675406">
        <ele>55.4130859</ele>
        <time>2014-01-18T09:11:07Z</time>
      </trkpt>
      <trkpt lat="51.8695222" lon="7.1657510">
        <ele>55.4130859</ele>
        <time>2014-01-18T09:11:31Z</time>
      </trkpt>
      <trkpt lat="51.8693017" lon="7.1632277">
        <ele>54.4517822</ele>
        <time>2014-01-18T09:12:04Z</time>
      </trkpt>
      <trkpt lat="51.8691441" lon="7.1614251">
        <ele>54.9323730</ele>
        <time>2014-01-18T09:12:29Z</time>
      </trkpt>
      <trkpt lat="51.8689773" lon="7.1595167">
        <ele>54.9323730</ele>
        <time>2014-01-18T09:12:56Z</time>
      </trkpt>
      <trkpt lat="51.8689449" lon="7.1591465">
        <ele>55.4130859</ele>
        <time>2014-01-18T09:13:01Z</time>
      </trkpt>
      <trkpt lat="51.8687230" lon="7.1591816">
        <ele>54.4517822</ele>
        <time>2014-01-18T09:13:05Z</time>
      </trkpt>
      <trkpt lat="51.8676723" lon="7.1593895">
        <ele>54.4517822</ele>
        <time>2014-01-18T09:13:30Z</time>
      </trkpt>
      <trkpt lat="51.8664545" lon="7.1596305">
        <ele>53.4904785</ele>
        <time>2014-01-18T09:13:58Z</time>
      </trkpt>
      <trkpt lat="51.8654631" lon="7.1598268">
        <ele>53.0097656</ele>
        <time>2014-01-18T09:14:21Z</time>
      </trkpt>
      <trkpt lat="51.8641671" lon="7.1600845">
        <ele>53.0097656</ele>
        <time>2014-01-18T09:14:50Z</time>
      </trkpt>
      <trkpt lat="51.8631047" lon="7.1602971">
        <ele>53.0097656</ele>
        <time>2014-01-18T09:15:14Z</time>
      </trkpt>
      <trkpt lat="51.8616797" lon="7.1606489">
        <ele>52.5291748</ele>
        <time>2014-01-18T09:15:47Z</time>
      </trkpt>
      <trkpt lat="51.8607947" lon="7.1609294">
        <ele>52.0485840</ele>
        <time>2014-01-18T09:16:08Z</time>
      </trkpt>
      <trkpt lat="51.8602013" lon="7.1611572">
        <ele>53.0097656</ele>
        <time>2014-01-18T09:16:23Z</time>
      </trkpt>
      <trkpt lat="51.8594904" lon="7.1614803">
        <ele>52.0485840</ele>
        <time>2014-01-18T09:16:40Z</time>
      </trkpt>
      <trkpt lat="51.8587090" lon="7.1618355">
        <ele>51.0871582</ele>
        <time>2014-01-18T09:16:59Z</time>
      </trkpt>
      <trkpt lat="51.8586889" lon="7.1623322">
        <ele>51.5678711</ele>
        <time>2014-01-18T09:17:07Z</time>
      </trkpt>
      <trkpt lat="51.8589809" lon="7.1638286">
        <ele>51.5678711</ele>
        <time>2014-01-18T09:17:30Z</time>
      </trkpt>
      <trkpt lat="51.8592787" lon="7.1653546">
        <ele>51.5678711</ele>
        <time>2014-01-18T09:17:54Z</time>
      </trkpt>
      <trkpt lat="51.8590948" lon="7.1654641">
        <ele>52.5291748</ele>
        <time>2014-01-18T09:17:59Z</time>
      </trkpt>
      <trkpt lat="51.8583621" lon="7.1656939">
        <ele>51.5678711</ele>
        <time>2014-01-18T09:18:17Z</time>
      </trkpt>
      <trkpt lat="51.8573449" lon="7.1660131">
        <ele>51.5678711</ele>
        <time>2014-01-18T09:18:41Z</time>
      </trkpt>
      <trkpt lat="51.8566526" lon="7.1663927">
        <ele>51.0871582</ele>
        <time>2014-01-18T09:18:58Z</time>
      </trkpt>
      <trkpt lat="51.8557377" lon="7.1670119">
        <ele>50.6065674</ele>
        <time>2014-01-18T09:19:22Z</time>
      </trkpt>
      <trkpt lat="51.8548627" lon="7.1676042">
        <ele>51.5678711</ele>
        <time>2014-01-18T09:19:46Z</time>
      </trkpt>
      <trkpt lat="51.8541015" lon="7.1681272">
        <ele>51.5678711</ele>
        <time>2014-01-18T09:20:07Z</time>
      </trkpt>
      <trkpt lat="51.8539868" lon="7.1682092">
        <ele>50.1259766</ele>
        <time>2014-01-18T09:20:10Z</time>
      </trkpt>
      <trkpt lat="51.8529357" lon="7.1689601">
        <ele>50.6065674</ele>
        <time>2014-01-18T09:20:38Z</time>
      </trkpt>
      <trkpt lat="51.8519703" lon="7.1698977">
        <ele>49.6452637</ele>
        <time>2014-01-18T09:21:06Z</time>
      </trkpt>
      <trkpt lat="51.8514737" lon="7.1705904">
        <ele>51.0871582</ele>
        <time>2014-01-18T09:21:25Z</time>
      </trkpt>
      <trkpt lat="51.8506183" lon="7.1717833">
        <ele>50.6065674</ele>
        <time>2014-01-18T09:21:53Z</time>
      </trkpt>
      <trkpt lat="51.8502331" lon="7.1723557">
        <ele>51.0871582</ele>
        <time>2014-01-18T09:22:09Z</time>
      </trkpt>
      <trkpt lat="51.8497725" lon="7.1735580">
        <ele>51.0871582</ele>
        <time>2014-01-18T09:22:29Z</time>
      </trkpt>
      <trkpt lat="51.8496298" lon="7.1744637">
        <ele>51.0871582</ele>
        <time>2014-01-18T09:22:44Z</time>
      </trkpt>
      <trkpt lat="51.8491154" lon="7.1755957">
        <ele>50.6065674</ele>
        <time>2014-01-18T09:23:05Z</time>
      </trkpt>
      <trkpt lat="51.8489620" lon="7.1758747">
        <ele>52.0485840</ele>
        <time>2014-01-18T09:23:15Z</time>
      </trkpt>
      <trkpt lat="51.8485644" lon="7.1759224">
        <ele>51.0871582</ele>
        <time>2014-01-18T09:23:27Z</time>
      </trkpt>
      <trkpt lat="51.8477515" lon="7.1760535">
        <ele>50.6065674</ele>
        <time>2014-01-18T09:23:46Z</time>
      </trkpt>
      <trkpt lat="51.8474356" lon="7.1760734">
        <ele>50.1259766</ele>
        <time>2014-01-18T09:23:53Z</time>
      </trkpt>
      <trkpt lat="51.8468857" lon="7.1758318">
        <ele>50.1259766</ele>
        <time>2014-01-18T09:24:09Z</time>
      </trkpt>
      <trkpt lat="51.8459250" lon="7.1752605">
        <ele>49.6452637</ele>
        <time>2014-01-18T09:24:29Z</time>
      </trkpt>
      <trkpt lat="51.8455531" lon="7.1752083">
        <ele>48.6839600</ele>
        <time>2014-01-18T09:24:38Z</time>
      </trkpt>
      <trkpt lat="51.8453209" lon="7.1750395">
        <ele>49.6452637</ele>
        <time>2014-01-18T09:24:44Z</time>
      </trkpt>
      <trkpt lat="51.8450225" lon="7.1744728">
        <ele>49.1645508</ele>
        <time>2014-01-18T09:24:54Z</time>
      </trkpt>
      <trkpt lat="51.8448890" lon="7.1732191">
        <ele>48.6839600</ele>
        <time>2014-01-18T09:25:12Z</time>
      </trkpt>
      <trkpt lat="51.8446700" lon="7.1717955">
        <ele>48.6839600</ele>
        <time>2014-01-18T09:25:34Z</time>
      </trkpt>
      <trkpt lat="51.8442324" lon="7.1705252">
        <ele>48.6839600</ele>
        <time>2014-01-18T09:25:55Z</time>
      </trkpt>
      <trkpt lat="51.8440039" lon="7.1705480">
        <ele>48.2033691</ele>
        <time>2014-01-18T09:26:00Z</time>
      </trkpt>
      <trkpt lat="51.8433111" lon="7.1706659">
        <ele>48.2033691</ele>
        <time>2014-01-18T09:26:17Z</time>
      </trkpt>
      <trkpt lat="51.8426044" lon="7.1707862">
        <ele>48.2033691</ele>
        <time>2014-01-18T09:26:34Z</time>
      </trkpt>
      <trkpt lat="51.8417511" lon="7.1709154">
        <ele>48.2033691</ele>
        <time>2014-01-18T09:26:54Z</time>
      </trkpt>
      <trkpt lat="51.8406471" lon="7.1710995">
        <ele>47.7225342</ele>
        <time>2014-01-18T09:27:20Z</time>
      </trkpt>
      <trkpt lat="51.8397331" lon="7.1711616">
        <ele>47.7225342</ele>
        <time>2014-01-18T09:27:41Z</time>
      </trkpt>
      <trkpt lat="51.8386327" lon="7.1714530">
        <ele>47.7225342</ele>
        <time>2014-01-18T09:28:07Z</time>
      </trkpt>
      <trkpt lat="51.8373597" lon="7.1717900">
        <ele>47.7225342</ele>
        <time>2014-01-18T09:28:37Z</time>
      </trkpt>
      <trkpt lat="51.8371876" lon="7.1718356">
        <ele>47.7225342</ele>
        <time>2014-01-18T09:28:41Z</time>
      </trkpt>
      <trkpt lat="51.8367915" lon="7.1719122">
        <ele>47.2418213</ele>
        <time>2014-01-18T09:28:50Z</time>
      </trkpt>
      <trkpt lat="51.8365506" lon="7.1718471">
        <ele>47.2418213</ele>
        <time>2014-01-18T09:28:55Z</time>
      </trkpt>
      <trkpt lat="51.8358783" lon="7.1716655">
        <ele>46.7612305</ele>
        <time>2014-01-18T09:29:12Z</time>
      </trkpt>
      <trkpt lat="51.8350569" lon="7.1716463">
        <ele>46.2806396</ele>
        <time>2014-01-18T09:29:31Z</time>
      </trkpt>
      <trkpt lat="51.8343894" lon="7.1721472">
        <ele>46.7612305</ele>
        <time>2014-01-18T09:29:48Z</time>
      </trkpt>
      <trkpt lat="51.8337145" lon="7.1726532">
        <ele>46.2806396</ele>
        <time>2014-01-18T09:30:05Z</time>
      </trkpt>
      <trkpt lat="51.8329584" lon="7.1732204">
        <ele>45.7999268</ele>
        <time>2014-01-18T09:30:24Z</time>
      </trkpt>
      <trkpt lat="51.8327659" lon="7.1733647">
        <ele>46.2806396</ele>
        <time>2014-01-18T09:30:29Z</time>
      </trkpt>
      <trkpt lat="51.8325669" lon="7.1729276">
        <ele>46.7612305</ele>
        <time>2014-01-18T09:30:38Z</time>
      </trkpt>
      <trkpt lat="51.8323728" lon="7.1720737">
        <ele>46.7612305</ele>
        <time>2014-01-18T09:30:53Z</time>
      </trkpt>
      <trkpt lat="51.8321065" lon="7.1712212">
        <ele>47.2418213</ele>
        <time>2014-01-18T09:31:07Z</time>
      </trkpt>
      <trkpt lat="51.8316195" lon="7.1706236">
        <ele>47.2418213</ele>
        <time>2014-01-18T09:31:22Z</time>
      </trkpt>
      <trkpt lat="51.8309407" lon="7.1699011">
        <ele>47.2418213</ele>
        <time>2014-01-18T09:31:42Z</time>
      </trkpt>
      <trkpt lat="51.8308051" lon="7.1697568">
        <ele>46.7612305</ele>
        <time>2014-01-18T09:31:46Z</time>
      </trkpt>
      <trkpt lat="51.8306378" lon="7.1695144">
        <ele>47.2418213</ele>
        <time>2014-01-18T09:31:51Z</time>
      </trkpt>
      <trkpt lat="51.8304166" lon="7.1683721">
        <ele>47.2418213</ele>
        <time>2014-01-18T09:32:08Z</time>
      </trkpt>
      <trkpt lat="51.8302195" lon="7.1672150">
        <ele>47.2418213</ele>
        <time>2014-01-18T09:32:25Z</time>
      </trkpt>
      <trkpt lat="51.8301300" lon="7.1657285">
        <ele>47.7225342</ele>
        <time>2014-01-18T09:32:47Z</time>
      </trkpt>
      <trkpt lat="51.8300348" lon="7.1641487">
        <ele>48.2033691</ele>
        <time>2014-01-18T09:33:10Z</time>
      </trkpt>
      <trkpt lat="51.8300212" lon="7.1639233">
        <ele>48.2033691</ele>
        <time>2014-01-18T09:33:13Z</time>
      </trkpt>
      <trkpt lat="51.8302376" lon="7.1626499">
        <ele>48.2033691</ele>
        <time>2014-01-18T09:33:32Z</time>
      </trkpt>
      <trkpt lat="51.8304935" lon="7.1611783">
        <ele>48.2033691</ele>
        <time>2014-01-18T09:33:53Z</time>
      </trkpt>
      <trkpt lat="51.8305056" lon="7.1611088">
        <ele>48.2033691</ele>
        <time>2014-01-18T09:33:54Z</time>
      </trkpt>
      <trkpt lat="51.8304240" lon="7.1605149">
        <ele>48.6839600</ele>
        <time>2014-01-18T09:34:03Z</time>
      </trkpt>
      <trkpt lat="51.8300404" lon="7.1596500">
        <ele>48.2033691</ele>
        <time>2014-01-18T09:34:19Z</time>
      </trkpt>
      <trkpt lat="51.8298075" lon="7.1583886">
        <ele>49.1645508</ele>
        <time>2014-01-18T09:34:39Z</time>
      </trkpt>
      <trkpt lat="51.8295831" lon="7.1568366">
        <ele>48.6839600</ele>
        <time>2014-01-18T09:35:01Z</time>
      </trkpt>
      <trkpt lat="51.8295311" lon="7.1557785">
        <ele>48.2033691</ele>
        <time>2014-01-18T09:35:17Z</time>
      </trkpt>
      <trkpt lat="51.8294684" lon="7.1542699">
        <ele>48.2033691</ele>
        <time>2014-01-18T09:35:38Z</time>
      </trkpt>
      <trkpt lat="51.8295636" lon="7.1526979">
        <ele>48.2033691</ele>
        <time>2014-01-18T09:36:00Z</time>
      </trkpt>
      <trkpt lat="51.8296469" lon="7.1512536">
        <ele>48.6839600</ele>
        <time>2014-01-18T09:36:21Z</time>
      </trkpt>
      <trkpt lat="51.8297148" lon="7.1497590">
        <ele>48.2033691</ele>
        <time>2014-01-18T09:36:42Z</time>
      </trkpt>
      <trkpt lat="51.8297827" lon="7.1482642">
        <ele>48.2033691</ele>
        <time>2014-01-18T09:37:03Z</time>
      </trkpt>
      <trkpt lat="51.8298636" lon="7.1466525">
        <ele>48.6839600</ele>
        <time>2014-01-18T09:37:26Z</time>
      </trkpt>
      <trkpt lat="51.8299025" lon="7.1462246">
        <ele>48.6839600</ele>
        <time>2014-01-18T09:37:32Z</time>
      </trkpt>
      <trkpt lat="51.8299197" lon="7.1449322">
        <ele>48.6839600</ele>
        <time>2014-01-18T09:37:52Z</time>
      </trkpt>
      <trkpt lat="51.8298054" lon="7.1437812">
        <ele>49.1645508</ele>
        <time>2014-01-18T09:38:12Z</time>
      </trkpt>
      <trkpt lat="51.8298054" lon="7.1426690">
        <ele>49.1645508</ele>
        <time>2014-01-18T09:38:30Z</time>
      </trkpt>
      <trkpt lat="51.8297132" lon="7.1416092">
        <ele>48.6839600</ele>
        <time>2014-01-18T09:38:48Z</time>
      </trkpt>
      <trkpt lat="51.8295405" lon="7.1412699">
        <ele>48.6839600</ele>
        <time>2014-01-18T09:38:59Z</time>
      </trkpt>
      <trkpt lat="51.8295405" lon="7.1412699">
        <ele>48.6839600</ele>
        <time>2014-01-18T09:39:49Z</time>
      </trkpt>
      <trkpt lat="51.8294152" lon="7.1410582">
        <ele>48.2033691</ele>
        <time>2014-01-18T09:41:42Z</time>
      </trkpt>
      <trkpt lat="51.8289471" lon="7.1402228">
        <ele>47.7225342</ele>
        <time>2014-01-18T09:42:02Z</time>
      </trkpt>
      <trkpt lat="51.8286896" lon="7.1392614">
        <ele>48.2033691</ele>
        <time>2014-01-18T09:42:18Z</time>
      </trkpt>
      <trkpt lat="51.8287677" lon="7.1378433">
        <ele>48.2033691</ele>
        <time>2014-01-18T09:42:41Z</time>
      </trkpt>
      <trkpt lat="51.8289388" lon="7.1361328">
        <ele>48.2033691</ele>
        <time>2014-01-18T09:43:06Z</time>
      </trkpt>
      <trkpt lat="51.8290031" lon="7.1347284">
        <ele>48.2033691</ele>
        <time>2014-01-18T09:43:27Z</time>
      </trkpt>
      <trkpt lat="51.8287380" lon="7.1338197">
        <ele>48.6839600</ele>
        <time>2014-01-18T09:43:42Z</time>
      </trkpt>
      <trkpt lat="51.8280659" lon="7.1323154">
        <ele>48.2033691</ele>
        <time>2014-01-18T09:44:07Z</time>
      </trkpt>
      <trkpt lat="51.8273377" lon="7.1303482">
        <ele>48.2033691</ele>
        <time>2014-01-18T09:44:39Z</time>
      </trkpt>
      <trkpt lat="51.8265854" lon="7.1287092">
        <ele>49.1645508</ele>
        <time>2014-01-18T09:45:08Z</time>
      </trkpt>
      <trkpt lat="51.8258958" lon="7.1279539">
        <ele>48.6839600</ele>
        <time>2014-01-18T09:45:28Z</time>
      </trkpt>
      <trkpt lat="51.8253668" lon="7.1272059">
        <ele>50.1259766</ele>
        <time>2014-01-18T09:45:46Z</time>
      </trkpt>
      <trkpt lat="51.8253138" lon="7.1260696">
        <ele>50.1259766</ele>
        <time>2014-01-18T09:46:03Z</time>
      </trkpt>
      <trkpt lat="51.8254295" lon="7.1241713">
        <ele>51.0871582</ele>
        <time>2014-01-18T09:46:31Z</time>
      </trkpt>
      <trkpt lat="51.8255083" lon="7.1228800">
        <ele>50.6065674</ele>
        <time>2014-01-18T09:46:50Z</time>
      </trkpt>
      <trkpt lat="51.8255124" lon="7.1228120">
        <ele>50.1259766</ele>
        <time>2014-01-18T09:46:51Z</time>
      </trkpt>
      <trkpt lat="51.8252491" lon="7.1215849">
        <ele>50.6065674</ele>
        <time>2014-01-18T09:47:11Z</time>
      </trkpt>
      <trkpt lat="51.8248444" lon="7.1200381">
        <ele>51.0871582</ele>
        <time>2014-01-18T09:47:36Z</time>
      </trkpt>
      <trkpt lat="51.8242989" lon="7.1181931">
        <ele>52.0485840</ele>
        <time>2014-01-18T09:48:06Z</time>
      </trkpt>
      <trkpt lat="51.8240924" lon="7.1169156">
        <ele>52.0485840</ele>
        <time>2014-01-18T09:48:26Z</time>
      </trkpt>
      <trkpt lat="51.8238860" lon="7.1154970">
        <ele>52.0485840</ele>
        <time>2014-01-18T09:48:49Z</time>
      </trkpt>
      <trkpt lat="51.8237543" lon="7.1145916">
        <ele>52.5291748</ele>
        <time>2014-01-18T09:49:06Z</time>
      </trkpt>
      <trkpt lat="51.8242500" lon="7.1138975">
        <ele>52.5291748</ele>
        <time>2014-01-18T09:49:19Z</time>
      </trkpt>
      <trkpt lat="51.8249717" lon="7.1127855">
        <ele>52.0485840</ele>
        <time>2014-01-18T09:49:42Z</time>
      </trkpt>
      <trkpt lat="51.8257393" lon="7.1117865">
        <ele>52.0485840</ele>
        <time>2014-01-18T09:50:06Z</time>
      </trkpt>
      <trkpt lat="51.8262957" lon="7.1117967">
        <ele>51.5678711</ele>
        <time>2014-01-18T09:50:20Z</time>
      </trkpt>
      <trkpt lat="51.8268415" lon="7.1119810">
        <ele>51.0871582</ele>
        <time>2014-01-18T09:50:34Z</time>
      </trkpt>
      <trkpt lat="51.8273228" lon="7.1122035">
        <ele>52.5291748</ele>
        <time>2014-01-18T09:50:49Z</time>
      </trkpt>
      <trkpt lat="51.8276846" lon="7.1126276">
        <ele>51.5678711</ele>
        <time>2014-01-18T09:51:01Z</time>
      </trkpt>
      <trkpt lat="51.8283294" lon="7.1133835">
        <ele>50.6065674</ele>
        <time>2014-01-18T09:51:21Z</time>
      </trkpt>
      <trkpt lat="51.8288317" lon="7.1136451">
        <ele>50.6065674</ele>
        <time>2014-01-18T09:51:35Z</time>
      </trkpt>
      <trkpt lat="51.8295919" lon="7.1137432">
        <ele>50.6065674</ele>
        <time>2014-01-18T09:51:54Z</time>
      </trkpt>
      <trkpt lat="51.8300402" lon="7.1136190">
        <ele>50.1259766</ele>
        <time>2014-01-18T09:52:06Z</time>
      </trkpt>
      <trkpt lat="51.8305074" lon="7.1132367">
        <ele>49.6452637</ele>
        <time>2014-01-18T09:52:19Z</time>
      </trkpt>
      <trkpt lat="51.8312088" lon="7.1126629">
        <ele>50.1259766</ele>
        <time>2014-01-18T09:52:39Z</time>
      </trkpt>
      <trkpt lat="51.8313153" lon="7.1125758">
        <ele>50.1259766</ele>
        <time>2014-01-18T09:52:42Z</time>
      </trkpt>
      <trkpt lat="51.8318325" lon="7.1122634">
        <ele>50.6065674</ele>
        <time>2014-01-18T09:52:57Z</time>
      </trkpt>
      <trkpt lat="51.8322375" lon="7.1127507">
        <ele>50.1259766</ele>
        <time>2014-01-18T09:53:10Z</time>
      </trkpt>
      <trkpt lat="51.8329511" lon="7.1136649">
        <ele>48.2033691</ele>
        <time>2014-01-18T09:53:32Z</time>
      </trkpt>
      <trkpt lat="51.8333046" lon="7.1141174">
        <ele>48.6839600</ele>
        <time>2014-01-18T09:53:43Z</time>
      </trkpt>
      <trkpt lat="51.8338304" lon="7.1147909">
        <ele>48.2033691</ele>
        <time>2014-01-18T09:54:00Z</time>
      </trkpt>
      <trkpt lat="51.8342972" lon="7.1153889">
        <ele>48.6839600</ele>
        <time>2014-01-18T09:54:15Z</time>
      </trkpt>
      <trkpt lat="51.8343764" lon="7.1153138">
        <ele>48.6839600</ele>
        <time>2014-01-18T09:54:19Z</time>
      </trkpt>
      <trkpt lat="51.8351953" lon="7.1141389">
        <ele>48.2033691</ele>
        <time>2014-01-18T09:54:45Z</time>
      </trkpt>
      <trkpt lat="51.8352283" lon="7.1140915">
        <ele>48.2033691</ele>
        <time>2014-01-18T09:54:46Z</time>
      </trkpt>
      <trkpt lat="51.8359048" lon="7.1136803">
        <ele>47.7225342</ele>
        <time>2014-01-18T09:55:05Z</time>
      </trkpt>
      <trkpt lat="51.8362869" lon="7.1131003">
        <ele>48.6839600</ele>
        <time>2014-01-18T09:55:19Z</time>
      </trkpt>
      <trkpt lat="51.8367840" lon="7.1120385">
        <ele>48.6839600</ele>
        <time>2014-01-18T09:55:40Z</time>
      </trkpt>
      <trkpt lat="51.8372819" lon="7.1108969">
        <ele>48.6839600</ele>
        <time>2014-01-18T09:56:02Z</time>
      </trkpt>
      <trkpt lat="51.8375587" lon="7.1099478">
        <ele>48.6839600</ele>
        <time>2014-01-18T09:56:23Z</time>
      </trkpt>
      <trkpt lat="51.8380924" lon="7.1088723">
        <ele>49.1645508</ele>
        <time>2014-01-18T09:56:40Z</time>
      </trkpt>
      <trkpt lat="51.8384105" lon="7.1080629">
        <ele>49.6452637</ele>
        <time>2014-01-18T09:56:58Z</time>
      </trkpt>
      <trkpt lat="51.8384435" lon="7.1080302">
        <ele>49.1645508</ele>
        <time>2014-01-18T09:57:12Z</time>
      </trkpt>
      <trkpt lat="51.8386213" lon="7.1077871">
        <ele>49.1645508</ele>
        <time>2014-01-18T09:58:28Z</time>
      </trkpt>
      <trkpt lat="51.8392278" lon="7.1070232">
        <ele>48.6839600</ele>
        <time>2014-01-18T09:58:44Z</time>
      </trkpt>
      <trkpt lat="51.8398720" lon="7.1061649">
        <ele>49.1645508</ele>
        <time>2014-01-18T09:59:04Z</time>
      </trkpt>
      <trkpt lat="51.8403439" lon="7.1055769">
        <ele>49.6452637</ele>
        <time>2014-01-18T09:59:21Z</time>
      </trkpt>
      <trkpt lat="51.8404495" lon="7.1056573">
        <ele>49.1645508</ele>
        <time>2014-01-18T09:59:25Z</time>
      </trkpt>
      <trkpt lat="51.8409112" lon="7.1062825">
        <ele>49.1645508</ele>
        <time>2014-01-18T09:59:42Z</time>
      </trkpt>
      <trkpt lat="51.8415338" lon="7.1070727">
        <ele>49.1645508</ele>
        <time>2014-01-18T10:00:03Z</time>
      </trkpt>
      <trkpt lat="51.8418302" lon="7.1074380">
        <ele>48.6839600</ele>
        <time>2014-01-18T10:00:14Z</time>
      </trkpt>
      <trkpt lat="51.8418886" lon="7.1073301">
        <ele>49.1645508</ele>
        <time>2014-01-18T10:00:15Z</time>
      </trkpt>
      <trkpt lat="51.8424201" lon="7.1065782">
        <ele>49.1645508</ele>
        <time>2014-01-18T10:00:32Z</time>
      </trkpt>
      <trkpt lat="51.8433042" lon="7.1053276">
        <ele>49.1645508</ele>
        <time>2014-01-18T10:01:00Z</time>
      </trkpt>
      <trkpt lat="51.8435812" lon="7.1048080">
        <ele>49.6452637</ele>
        <time>2014-01-18T10:01:12Z</time>
      </trkpt>
      <trkpt lat="51.8437183" lon="7.1048662">
        <ele>49.6452637</ele>
        <time>2014-01-18T10:01:16Z</time>
      </trkpt>
      <trkpt lat="51.8437596" lon="7.1048970">
        <ele>50.1259766</ele>
        <time>2014-01-18T10:01:18Z</time>
      </trkpt>
      <trkpt lat="51.8441259" lon="7.1051706">
        <ele>49.6452637</ele>
        <time>2014-01-18T10:01:31Z</time>
      </trkpt>
      <trkpt lat="51.8447916" lon="7.1056676">
        <ele>49.1645508</ele>
        <time>2014-01-18T10:01:51Z</time>
      </trkpt>
      <trkpt lat="51.8454546" lon="7.1061628">
        <ele>48.6839600</ele>
        <time>2014-01-18T10:02:09Z</time>
      </trkpt>
      <trkpt lat="51.8460327" lon="7.1065943">
        <ele>49.1645508</ele>
        <time>2014-01-18T10:02:25Z</time>
      </trkpt>
      <trkpt lat="51.8467630" lon="7.1071396">
        <ele>49.6452637</ele>
        <time>2014-01-18T10:02:46Z</time>
      </trkpt>
      <trkpt lat="51.8474635" lon="7.1076627">
        <ele>49.6452637</ele>
        <time>2014-01-18T10:03:08Z</time>
      </trkpt>
      <trkpt lat="51.8480515" lon="7.1081017">
        <ele>49.6452637</ele>
        <time>2014-01-18T10:03:25Z</time>
      </trkpt>
      <trkpt lat="51.8485924" lon="7.1085055">
        <ele>50.1259766</ele>
        <time>2014-01-18T10:03:42Z</time>
      </trkpt>
      <trkpt lat="51.8492936" lon="7.1090292">
        <ele>49.6452637</ele>
        <time>2014-01-18T10:04:02Z</time>
      </trkpt>
      <trkpt lat="51.8501197" lon="7.1097438">
        <ele>50.1259766</ele>
        <time>2014-01-18T10:04:29Z</time>
      </trkpt>
      <trkpt lat="51.8503884" lon="7.1104675">
        <ele>49.6452637</ele>
        <time>2014-01-18T10:04:46Z</time>
      </trkpt>
      <trkpt lat="51.8504047" lon="7.1105576">
        <ele>49.1645508</ele>
        <time>2014-01-18T10:05:01Z</time>
      </trkpt>
      <trkpt lat="51.8497385" lon="7.1122553">
        <ele>49.1645508</ele>
        <time>2014-01-18T10:05:26Z</time>
      </trkpt>
      <trkpt lat="51.8492919" lon="7.1134070">
        <ele>49.6452637</ele>
        <time>2014-01-18T10:05:53Z</time>
      </trkpt>
      <trkpt lat="51.8494829" lon="7.1138764">
        <ele>49.6452637</ele>
        <time>2014-01-18T10:06:07Z</time>
      </trkpt>
      <trkpt lat="51.8496800" lon="7.1145972">
        <ele>50.1259766</ele>
        <time>2014-01-18T10:06:23Z</time>
      </trkpt>
      <trkpt lat="51.8497660" lon="7.1152919">
        <ele>49.6452637</ele>
        <time>2014-01-18T10:06:36Z</time>
      </trkpt>
      <trkpt lat="51.8498960" lon="7.1159299">
        <ele>50.1259766</ele>
        <time>2014-01-18T10:06:51Z</time>
      </trkpt>
      <trkpt lat="51.8500177" lon="7.1166512">
        <ele>50.1259766</ele>
        <time>2014-01-18T10:07:06Z</time>
      </trkpt>
      <trkpt lat="51.8501411" lon="7.1172907">
        <ele>49.6452637</ele>
        <time>2014-01-18T10:07:21Z</time>
      </trkpt>
      <trkpt lat="51.8502684" lon="7.1179913">
        <ele>50.1259766</ele>
        <time>2014-01-18T10:07:37Z</time>
      </trkpt>
      <trkpt lat="51.8503854" lon="7.1185128">
        <ele>50.1259766</ele>
        <time>2014-01-18T10:07:51Z</time>
      </trkpt>
      <trkpt lat="51.8503370" lon="7.1185502">
        <ele>51.0871582</ele>
        <time>2014-01-18T10:08:07Z</time>
      </trkpt>
      <trkpt lat="51.8503482" lon="7.1185644">
        <ele>51.0871582</ele>
        <time>2014-01-18T10:10:34Z</time>
      </trkpt>
      <trkpt lat="51.8505245" lon="7.1192220">
        <ele>50.1259766</ele>
        <time>2014-01-18T10:10:53Z</time>
      </trkpt>
      <trkpt lat="51.8506491" lon="7.1199446">
        <ele>50.1259766</ele>
        <time>2014-01-18T10:11:10Z</time>
      </trkpt>
      <trkpt lat="51.8508050" lon="7.1207089">
        <ele>50.1259766</ele>
        <time>2014-01-18T10:11:26Z</time>
      </trkpt>
      <trkpt lat="51.8508190" lon="7.1207557">
        <ele>50.1259766</ele>
        <time>2014-01-18T10:11:27Z</time>
      </trkpt>
      <trkpt lat="51.8509206" lon="7.1207986">
        <ele>50.1259766</ele>
        <time>2014-01-18T10:11:31Z</time>
      </trkpt>
      <trkpt lat="51.8512661" lon="7.1206039">
        <ele>50.1259766</ele>
        <time>2014-01-18T10:11:44Z</time>
      </trkpt>
      <trkpt lat="51.8517279" lon="7.1204923">
        <ele>50.1259766</ele>
        <time>2014-01-18T10:12:00Z</time>
      </trkpt>
      <trkpt lat="51.8521339" lon="7.1203123">
        <ele>50.6065674</ele>
        <time>2014-01-18T10:12:15Z</time>
      </trkpt>
      <trkpt lat="51.8524823" lon="7.1201397">
        <ele>50.6065674</ele>
        <time>2014-01-18T10:12:28Z</time>
      </trkpt>
      <trkpt lat="51.8529287" lon="7.1200594">
        <ele>50.1259766</ele>
        <time>2014-01-18T10:12:44Z</time>
      </trkpt>
      <trkpt lat="51.8533568" lon="7.1199062">
        <ele>50.6065674</ele>
        <time>2014-01-18T10:12:58Z</time>
      </trkpt>
      <trkpt lat="51.8537415" lon="7.1197505">
        <ele>50.1259766</ele>
        <time>2014-01-18T10:13:13Z</time>
      </trkpt>
      <trkpt lat="51.8541723" lon="7.1196046">
        <ele>51.0871582</ele>
        <time>2014-01-18T10:13:30Z</time>
      </trkpt>
      <trkpt lat="51.8544840" lon="7.1195352">
        <ele>51.5678711</ele>
        <time>2014-01-18T10:13:46Z</time>
      </trkpt>
      <trkpt lat="51.8545551" lon="7.1194918">
        <ele>51.0871582</ele>
        <time>2014-01-18T10:13:50Z</time>
      </trkpt>
      <trkpt lat="51.8546197" lon="7.1194115">
        <ele>51.5678711</ele>
        <time>2014-01-18T10:13:55Z</time>
      </trkpt>
      <trkpt lat="51.8546754" lon="7.1193914">
        <ele>51.0871582</ele>
        <time>2014-01-18T10:13:59Z</time>
      </trkpt>
      <trkpt lat="51.8550007" lon="7.1193004">
        <ele>51.0871582</ele>
        <time>2014-01-18T10:14:18Z</time>
      </trkpt>
      <trkpt lat="51.8552096" lon="7.1191802">
        <ele>51.5678711</ele>
        <time>2014-01-18T10:14:34Z</time>
      </trkpt>
      <trkpt lat="51.8555115" lon="7.1189080">
        <ele>51.0871582</ele>
        <time>2014-01-18T10:14:51Z</time>
      </trkpt>
      <trkpt lat="51.8558986" lon="7.1189151">
        <ele>51.5678711</ele>
        <time>2014-01-18T10:15:05Z</time>
      </trkpt>
      <trkpt lat="51.8563849" lon="7.1188543">
        <ele>52.0485840</ele>
        <time>2014-01-18T10:15:23Z</time>
      </trkpt>
      <trkpt lat="51.8569398" lon="7.1187729">
        <ele>52.0485840</ele>
        <time>2014-01-18T10:15:44Z</time>
      </trkpt>
      <trkpt lat="51.8574497" lon="7.1187231">
        <ele>51.5678711</ele>
        <time>2014-01-18T10:16:02Z</time>
      </trkpt>
      <trkpt lat="51.8581648" lon="7.1185924">
        <ele>52.0485840</ele>
        <time>2014-01-18T10:16:27Z</time>
      </trkpt>
      <trkpt lat="51.8584716" lon="7.1185017">
        <ele>52.0485840</ele>
        <time>2014-01-18T10:16:45Z</time>
      </trkpt>
      <trkpt lat="51.8585136" lon="7.1185484">
        <ele>52.5291748</ele>
        <time>2014-01-18T10:16:56Z</time>
      </trkpt>
      <trkpt lat="51.8585095" lon="7.1186465">
        <ele>52.5291748</ele>
        <time>2014-01-18T10:17:00Z</time>
      </trkpt>
      <trkpt lat="51.8584007" lon="7.1194093">
        <ele>51.5678711</ele>
        <time>2014-01-18T10:17:15Z</time>
      </trkpt>
      <trkpt lat="51.8587100" lon="7.1199713">
        <ele>51.5678711</ele>
        <time>2014-01-18T10:17:29Z</time>
      </trkpt>
      <trkpt lat="51.8591798" lon="7.1209611">
        <ele>51.5678711</ele>
        <time>2014-01-18T10:17:49Z</time>
      </trkpt>
      <trkpt lat="51.8596844" lon="7.1219877">
        <ele>51.5678711</ele>
        <time>2014-01-18T10:18:10Z</time>
      </trkpt>
      <trkpt lat="51.8601861" lon="7.1230862">
        <ele>51.5678711</ele>
        <time>2014-01-18T10:18:32Z</time>
      </trkpt>
      <trkpt lat="51.8607617" lon="7.1243125">
        <ele>51.5678711</ele>
        <time>2014-01-18T10:18:58Z</time>
      </trkpt>
      <trkpt lat="51.8612378" lon="7.1253106">
        <ele>52.0485840</ele>
        <time>2014-01-18T10:19:18Z</time>
      </trkpt>
      <trkpt lat="51.8616546" lon="7.1262143">
        <ele>52.5291748</ele>
        <time>2014-01-18T10:19:36Z</time>
      </trkpt>
      <trkpt lat="51.8621152" lon="7.1270691">
        <ele>52.0485840</ele>
        <time>2014-01-18T10:19:54Z</time>
      </trkpt>
      <trkpt lat="51.8625081" lon="7.1278796">
        <ele>51.5678711</ele>
        <time>2014-01-18T10:20:10Z</time>
      </trkpt>
      <trkpt lat="51.8628810" lon="7.1286786">
        <ele>51.5678711</ele>
        <time>2014-01-18T10:20:26Z</time>
      </trkpt>
      <trkpt lat="51.8633912" lon="7.1297720">
        <ele>52.0485840</ele>
        <time>2014-01-18T10:20:49Z</time>
      </trkpt>
      <trkpt lat="51.8638553" lon="7.1307664">
        <ele>52.5291748</ele>
        <time>2014-01-18T10:21:09Z</time>
      </trkpt>
      <trkpt lat="51.8641795" lon="7.1316120">
        <ele>53.0097656</ele>
        <time>2014-01-18T10:21:25Z</time>
      </trkpt>
      <trkpt lat="51.8643140" lon="7.1323842">
        <ele>53.0097656</ele>
        <time>2014-01-18T10:21:39Z</time>
      </trkpt>
      <trkpt lat="51.8644958" lon="7.1334281">
        <ele>52.0485840</ele>
        <time>2014-01-18T10:21:56Z</time>
      </trkpt>
      <trkpt lat="51.8646708" lon="7.1344331">
        <ele>53.4904785</ele>
        <time>2014-01-18T10:22:13Z</time>
      </trkpt>
      <trkpt lat="51.8648577" lon="7.1355057">
        <ele>53.4904785</ele>
        <time>2014-01-18T10:22:31Z</time>
      </trkpt>
      <trkpt lat="51.8650117" lon="7.1363902">
        <ele>53.4904785</ele>
        <time>2014-01-18T10:22:45Z</time>
      </trkpt>
      <trkpt lat="51.8651763" lon="7.1373353">
        <ele>53.4904785</ele>
        <time>2014-01-18T10:23:01Z</time>
      </trkpt>
      <trkpt lat="51.8654489" lon="7.1389006">
        <ele>53.4904785</ele>
        <time>2014-01-18T10:23:27Z</time>
      </trkpt>
      <trkpt lat="51.8656549" lon="7.1401049">
        <ele>53.0097656</ele>
        <time>2014-01-18T10:23:47Z</time>
      </trkpt>
      <trkpt lat="51.8658955" lon="7.1415142">
        <ele>53.0097656</ele>
        <time>2014-01-18T10:24:09Z</time>
      </trkpt>
      <trkpt lat="51.8661419" lon="7.1429577">
        <ele>53.0097656</ele>
        <time>2014-01-18T10:24:33Z</time>
      </trkpt>
      <trkpt lat="51.8664115" lon="7.1445368">
        <ele>52.5291748</ele>
        <time>2014-01-18T10:24:59Z</time>
      </trkpt>
      <trkpt lat="51.8666479" lon="7.1459217">
        <ele>53.0097656</ele>
        <time>2014-01-18T10:25:22Z</time>
      </trkpt>
      <trkpt lat="51.8668464" lon="7.1470841">
        <ele>53.0097656</ele>
        <time>2014-01-18T10:25:42Z</time>
      </trkpt>
      <trkpt lat="51.8669408" lon="7.1476370">
        <ele>53.0097656</ele>
        <time>2014-01-18T10:25:51Z</time>
      </trkpt>
      <trkpt lat="51.8673253" lon="7.1476554">
        <ele>53.0097656</ele>
        <time>2014-01-18T10:26:01Z</time>
      </trkpt>
      <trkpt lat="51.8683133" lon="7.1475884">
        <ele>53.9711914</ele>
        <time>2014-01-18T10:26:27Z</time>
      </trkpt>
      <trkpt lat="51.8693328" lon="7.1475134">
        <ele>53.4904785</ele>
        <time>2014-01-18T10:26:53Z</time>
      </trkpt>
      <trkpt lat="51.8705586" lon="7.1474502">
        <ele>53.0097656</ele>
        <time>2014-01-18T10:27:24Z</time>
      </trkpt>
      <trkpt lat="51.8713772" lon="7.1474015">
        <ele>53.9711914</ele>
        <time>2014-01-18T10:27:46Z</time>
      </trkpt>
      <trkpt lat="51.8722027" lon="7.1473640">
        <ele>54.4517822</ele>
        <time>2014-01-18T10:28:09Z</time>
      </trkpt>
      <trkpt lat="51.8729832" lon="7.1473125">
        <ele>54.4517822</ele>
        <time>2014-01-18T10:28:29Z</time>
      </trkpt>
      <trkpt lat="51.8730380" lon="7.1475080">
        <ele>53.9711914</ele>
        <time>2014-01-18T10:28:34Z</time>
      </trkpt>
      <trkpt lat="51.8728759" lon="7.1493317">
        <ele>53.0097656</ele>
        <time>2014-01-18T10:29:03Z</time>
      </trkpt>
      <trkpt lat="51.8727532" lon="7.1509458">
        <ele>52.0485840</ele>
        <time>2014-01-18T10:29:27Z</time>
      </trkpt>
      <trkpt lat="51.8726408" lon="7.1524242">
        <ele>52.5291748</ele>
        <time>2014-01-18T10:29:49Z</time>
      </trkpt>
      <trkpt lat="51.8725194" lon="7.1540226">
        <ele>51.5678711</ele>
        <time>2014-01-18T10:30:13Z</time>
      </trkpt>
      <trkpt lat="51.8723813" lon="7.1558389">
        <ele>52.0485840</ele>
        <time>2014-01-18T10:30:41Z</time>
      </trkpt>
      <trkpt lat="51.8722725" lon="7.1572727">
        <ele>51.0871582</ele>
        <time>2014-01-18T10:31:02Z</time>
      </trkpt>
      <trkpt lat="51.8722057" lon="7.1584188">
        <ele>52.0485840</ele>
        <time>2014-01-18T10:31:21Z</time>
      </trkpt>
      <trkpt lat="51.8724724" lon="7.1592792">
        <ele>51.0871582</ele>
        <time>2014-01-18T10:31:38Z</time>
      </trkpt>
      <trkpt lat="51.8728786" lon="7.1605405">
        <ele>51.5678711</ele>
        <time>2014-01-18T10:32:00Z</time>
      </trkpt>
      <trkpt lat="51.8732995" lon="7.1617168">
        <ele>52.0485840</ele>
        <time>2014-01-18T10:32:22Z</time>
      </trkpt>
      <trkpt lat="51.8736721" lon="7.1624239">
        <ele>52.0485840</ele>
        <time>2014-01-18T10:32:36Z</time>
      </trkpt>
      <trkpt lat="51.8741457" lon="7.1629434">
        <ele>52.0485840</ele>
        <time>2014-01-18T10:32:51Z</time>
      </trkpt>
      <trkpt lat="51.8745391" lon="7.1633748">
        <ele>53.4904785</ele>
        <time>2014-01-18T10:33:03Z</time>
      </trkpt>
      <trkpt lat="51.8749481" lon="7.1641509">
        <ele>53.0097656</ele>
        <time>2014-01-18T10:33:20Z</time>
      </trkpt>
      <trkpt lat="51.8753399" lon="7.1656115">
        <ele>53.4904785</ele>
        <time>2014-01-18T10:33:46Z</time>
      </trkpt>
      <trkpt lat="51.8753714" lon="7.1657292">
        <ele>52.5291748</ele>
        <time>2014-01-18T10:33:48Z</time>
      </trkpt>
      <trkpt lat="51.8756491" lon="7.1667658">
        <ele>53.0097656</ele>
        <time>2014-01-18T10:34:06Z</time>
      </trkpt>
      <trkpt lat="51.8759689" lon="7.1679594">
        <ele>53.0097656</ele>
        <time>2014-01-18T10:34:27Z</time>
      </trkpt>
      <trkpt lat="51.8763367" lon="7.1693329">
        <ele>53.0097656</ele>
        <time>2014-01-18T10:34:50Z</time>
      </trkpt>
      <trkpt lat="51.8766638" lon="7.1705313">
        <ele>53.4904785</ele>
        <time>2014-01-18T10:35:11Z</time>
      </trkpt>
      <trkpt lat="51.8770796" lon="7.1719656">
        <ele>53.9711914</ele>
        <time>2014-01-18T10:35:36Z</time>
      </trkpt>
      <trkpt lat="51.8774317" lon="7.1731804">
        <ele>53.9711914</ele>
        <time>2014-01-18T10:35:57Z</time>
      </trkpt>
      <trkpt lat="51.8778406" lon="7.1737997">
        <ele>54.9323730</ele>
        <time>2014-01-18T10:36:12Z</time>
      </trkpt>
      <trkpt lat="51.8784662" lon="7.1745154">
        <ele>54.4517822</ele>
        <time>2014-01-18T10:36:31Z</time>
      </trkpt>
      <trkpt lat="51.8792293" lon="7.1753280">
        <ele>54.9323730</ele>
        <time>2014-01-18T10:36:54Z</time>
      </trkpt>
      <trkpt lat="51.8799401" lon="7.1760849">
        <ele>55.4130859</ele>
        <time>2014-01-18T10:37:15Z</time>
      </trkpt>
      <trkpt lat="51.8807706" lon="7.1769693">
        <ele>55.8937988</ele>
        <time>2014-01-18T10:37:40Z</time>
      </trkpt>
      <trkpt lat="51.8816840" lon="7.1778861">
        <ele>56.3745117</ele>
        <time>2014-01-18T10:38:07Z</time>
      </trkpt>
      <trkpt lat="51.8823792" lon="7.1784394">
        <ele>57.3358154</ele>
        <time>2014-01-18T10:38:27Z</time>
      </trkpt>
      <trkpt lat="51.8832251" lon="7.1791130">
        <ele>57.3358154</ele>
        <time>2014-01-18T10:38:49Z</time>
      </trkpt>
      <trkpt lat="51.8839682" lon="7.1797045">
        <ele>57.8165283</ele>
        <time>2014-01-18T10:39:09Z</time>
      </trkpt>
      <trkpt lat="51.8846425" lon="7.1802413">
        <ele>57.8165283</ele>
        <time>2014-01-18T10:39:28Z</time>
      </trkpt>
      <trkpt lat="51.8852807" lon="7.1807495">
        <ele>58.2971191</ele>
        <time>2014-01-18T10:39:45Z</time>
      </trkpt>
      <trkpt lat="51.8858112" lon="7.1811717">
        <ele>59.2584229</ele>
        <time>2014-01-18T10:40:00Z</time>
      </trkpt>
      <trkpt lat="51.8864566" lon="7.1815061">
        <ele>59.7391357</ele>
        <time>2014-01-18T10:40:17Z</time>
      </trkpt>
      <trkpt lat="51.8870300" lon="7.1816100">
        <ele>60.2197266</ele>
        <time>2014-01-18T10:40:32Z</time>
      </trkpt>
      <trkpt lat="51.8876547" lon="7.1814320">
        <ele>61.6617432</ele>
        <time>2014-01-18T10:40:49Z</time>
      </trkpt>
      <trkpt lat="51.8883699" lon="7.1812226">
        <ele>61.1810303</ele>
        <time>2014-01-18T10:41:07Z</time>
      </trkpt>
      <trkpt lat="51.8890062" lon="7.1809292">
        <ele>61.6617432</ele>
        <time>2014-01-18T10:41:24Z</time>
      </trkpt>
      <trkpt lat="51.8895636" lon="7.1800401">
        <ele>61.6617432</ele>
        <time>2014-01-18T10:41:42Z</time>
      </trkpt>
      <trkpt lat="51.8900242" lon="7.1795654">
        <ele>62.6229248</ele>
        <time>2014-01-18T10:41:57Z</time>
      </trkpt>
      <trkpt lat="51.8904459" lon="7.1796371">
        <ele>63.5843506</ele>
        <time>2014-01-18T10:42:09Z</time>
      </trkpt>
      <trkpt lat="51.8908735" lon="7.1797161">
        <ele>64.0650635</ele>
        <time>2014-01-18T10:42:22Z</time>
      </trkpt>
      <trkpt lat="51.8913507" lon="7.1798021">
        <ele>64.0650635</ele>
        <time>2014-01-18T10:42:35Z</time>
      </trkpt>
      <trkpt lat="51.8917563" lon="7.1798698">
        <ele>65.0263672</ele>
        <time>2014-01-18T10:42:47Z</time>
      </trkpt>
      <trkpt lat="51.8920493" lon="7.1799185">
        <ele>64.5456543</ele>
        <time>2014-01-18T10:43:00Z</time>
      </trkpt>
      <trkpt lat="51.8924502" lon="7.1798212">
        <ele>64.5456543</ele>
        <time>2014-01-18T10:43:11Z</time>
      </trkpt>
      <trkpt lat="51.8933661" lon="7.1792324">
        <ele>65.0263672</ele>
        <time>2014-01-18T10:43:35Z</time>
      </trkpt>
      <trkpt lat="51.8936178" lon="7.1795595">
        <ele>64.5456543</ele>
        <time>2014-01-18T10:43:44Z</time>
      </trkpt>
      <trkpt lat="51.8939561" lon="7.1803206">
        <ele>64.0650635</ele>
        <time>2014-01-18T10:43:58Z</time>
      </trkpt>
      <trkpt lat="51.8944065" lon="7.1812634">
        <ele>65.0263672</ele>
        <time>2014-01-18T10:44:16Z</time>
      </trkpt>
      <trkpt lat="51.8949596" lon="7.1824956">
        <ele>65.5070801</ele>
        <time>2014-01-18T10:44:42Z</time>
      </trkpt>
      <trkpt lat="51.8953248" lon="7.1833050">
        <ele>65.9876709</ele>
        <time>2014-01-18T10:45:00Z</time>
      </trkpt>
      <trkpt lat="51.8952530" lon="7.1834644">
        <ele>65.9876709</ele>
        <time>2014-01-18T10:45:04Z</time>
      </trkpt>
      <trkpt lat="51.8946818" lon="7.1842841">
        <ele>65.5070801</ele>
        <time>2014-01-18T10:45:24Z</time>
      </trkpt>
      <trkpt lat="51.8941770" lon="7.1849881">
        <ele>65.9876709</ele>
        <time>2014-01-18T10:45:42Z</time>
      </trkpt>
      <trkpt lat="51.8937466" lon="7.1855885">
        <ele>65.0263672</ele>
        <time>2014-01-18T10:45:57Z</time>
      </trkpt>
      <trkpt lat="51.8933182" lon="7.1861862">
        <ele>65.0263672</ele>
        <time>2014-01-18T10:46:13Z</time>
      </trkpt>
      <trkpt lat="51.8930995" lon="7.1867614">
        <ele>65.0263672</ele>
        <time>2014-01-18T10:46:25Z</time>
      </trkpt>
      <trkpt lat="51.8930110" lon="7.1872044">
        <ele>65.5070801</ele>
        <time>2014-01-18T10:46:39Z</time>
      </trkpt>
      <trkpt lat="51.8930040" lon="7.1873449">
        <ele>65.5070801</ele>
        <time>2014-01-18T10:46:55Z</time>
      </trkpt>
      <trkpt lat="51.8930040" lon="7.1873449">
        <ele>65.0263672</ele>
        <time>2014-01-18T10:47:09Z</time>
      </trkpt>
    </trkseg>
  </trk>

</gpx>
